sensor_id;sensor_type;location;lat;lon;timestamp;P1;durP1;ratioP1;P2;durP2;ratioP2
39426;SDS011;25938;48.470;1.486;2023-01-30T00:01:20;6.47;;;4.57;;
39426;SDS011;25938;48.470;1.486;2023-01-30T00:03:47;7.88;;;4.03;;
39426;SDS011;25938;48.470;1.486;2023-01-30T00:06:13;5.50;;;3.97;;
39426;SDS011;25938;48.470;1.486;2023-01-30T00:08:39;4.30;;;3.83;;
39426;SDS011;25938;48.470;1.486;2023-01-30T00:11:06;5.30;;;3.50;;
39426;SDS011;25938;48.470;1.486;2023-01-30T00:13:32;6.47;;;4.57;;
39426;SDS011;25938;48.470;1.486;2023-01-30T00:15:58;6.18;;;4.47;;
39426;SDS011;25938;48.470;1.486;2023-01-30T00:18:24;5.78;;;4.82;;
39426;SDS011;25938;48.470;1.486;2023-01-30T00:20:57;6.05;;;4.45;;
39426;SDS011;25938;48.470;1.486;2023-01-30T00:23:27;3.70;;;3.40;;
39426;SDS011;25938;48.470;1.486;2023-01-30T00:25:53;6.03;;;3.88;;
39426;SDS011;25938;48.470;1.486;2023-01-30T00:28:19;5.88;;;4.80;;
39426;SDS011;25938;48.470;1.486;2023-01-30T00:30:49;4.72;;;3.88;;
39426;SDS011;25938;48.470;1.486;2023-01-30T00:33:15;6.70;;;3.97;;
39426;SDS011;25938;48.470;1.486;2023-01-30T00:35:45;4.95;;;3.53;;
39426;SDS011;25938;48.470;1.486;2023-01-30T00:38:11;6.68;;;4.38;;
39426;SDS011;25938;48.470;1.486;2023-01-30T00:40:37;6.28;;;4.22;;
39426;SDS011;25938;48.470;1.486;2023-01-30T00:43:04;5.95;;;4.15;;
39426;SDS011;25938;48.470;1.486;2023-01-30T00:45:49;5.97;;;3.88;;
39426;SDS011;25938;48.470;1.486;2023-01-30T00:48:35;5.63;;;4.45;;
39426;SDS011;25938;48.470;1.486;2023-01-30T00:51:01;6.30;;;4.55;;
39426;SDS011;25938;48.470;1.486;2023-01-30T00:53:27;6.07;;;4.38;;
39426;SDS011;25938;48.470;1.486;2023-01-30T00:55:53;8.07;;;4.53;;
39426;SDS011;25938;48.470;1.486;2023-01-30T00:58:19;6.88;;;4.80;;
39426;SDS011;25938;48.470;1.486;2023-01-30T01:00:46;4.25;;;3.85;;
39426;SDS011;25938;48.470;1.486;2023-01-30T01:03:12;7.50;;;4.78;;
39426;SDS011;25938;48.470;1.486;2023-01-30T01:05:38;7.25;;;4.90;;
39426;SDS011;25938;48.470;1.486;2023-01-30T01:08:04;4.97;;;4.47;;
39426;SDS011;25938;48.470;1.486;2023-01-30T01:10:31;7.15;;;4.57;;
39426;SDS011;25938;48.470;1.486;2023-01-30T01:12:57;5.78;;;4.30;;
39426;SDS011;25938;48.470;1.486;2023-01-30T01:15:24;7.15;;;4.68;;
39426;SDS011;25938;48.470;1.486;2023-01-30T01:17:50;4.53;;;3.67;;
39426;SDS011;25938;48.470;1.486;2023-01-30T01:20:17;6.75;;;4.57;;
39426;SDS011;25938;48.470;1.486;2023-01-30T01:22:43;6.40;;;3.85;;
39426;SDS011;25938;48.470;1.486;2023-01-30T01:25:10;6.97;;;4.25;;
39426;SDS011;25938;48.470;1.486;2023-01-30T01:27:37;5.47;;;4.55;;
39426;SDS011;25938;48.470;1.486;2023-01-30T01:30:03;6.35;;;4.38;;
39426;SDS011;25938;48.470;1.486;2023-01-30T01:32:30;6.68;;;4.28;;
39426;SDS011;25938;48.470;1.486;2023-01-30T01:34:56;5.50;;;4.95;;
39426;SDS011;25938;48.470;1.486;2023-01-30T01:37:22;5.07;;;4.35;;
39426;SDS011;25938;48.470;1.486;2023-01-30T01:39:48;5.93;;;4.15;;
39426;SDS011;25938;48.470;1.486;2023-01-30T01:42:33;7.82;;;4.03;;
39426;SDS011;25938;48.470;1.486;2023-01-30T01:47:30;5.45;;;4.03;;
39426;SDS011;25938;48.470;1.486;2023-01-30T01:49:56;5.72;;;3.95;;
39426;SDS011;25938;48.470;1.486;2023-01-30T01:52:22;6.78;;;4.43;;
39426;SDS011;25938;48.470;1.486;2023-01-30T01:59:51;4.65;;;4.25;;
39426;SDS011;25938;48.470;1.486;2023-01-30T02:02:17;6.47;;;4.95;;
39426;SDS011;25938;48.470;1.486;2023-01-30T02:04:45;7.82;;;4.75;;
39426;SDS011;25938;48.470;1.486;2023-01-30T02:07:38;6.13;;;4.90;;
39426;SDS011;25938;48.470;1.486;2023-01-30T02:10:07;6.20;;;3.88;;
39426;SDS011;25938;48.470;1.486;2023-01-30T02:12:34;5.20;;;4.70;;
39426;SDS011;25938;48.470;1.486;2023-01-30T02:15:01;9.10;;;4.93;;
39426;SDS011;25938;48.470;1.486;2023-01-30T02:17:28;5.70;;;4.32;;
39426;SDS011;25938;48.470;1.486;2023-01-30T02:22:44;5.53;;;4.35;;
39426;SDS011;25938;48.470;1.486;2023-01-30T02:38:38;6.15;;;4.88;;
39426;SDS011;25938;48.470;1.486;2023-01-30T02:43:42;6.82;;;4.25;;
39426;SDS011;25938;48.470;1.486;2023-01-30T02:46:11;5.85;;;4.97;;
39426;SDS011;25938;48.470;1.486;2023-01-30T02:48:43;7.05;;;4.60;;
39426;SDS011;25938;48.470;1.486;2023-01-30T02:51:14;5.28;;;4.70;;
39426;SDS011;25938;48.470;1.486;2023-01-30T02:53:41;5.97;;;5.20;;
39426;SDS011;25938;48.470;1.486;2023-01-30T02:56:07;6.47;;;4.60;;
39426;SDS011;25938;48.470;1.486;2023-01-30T02:58:36;6.97;;;5.15;;
39426;SDS011;25938;48.470;1.486;2023-01-30T03:06:16;5.60;;;4.07;;
39426;SDS011;25938;48.470;1.486;2023-01-30T03:11:14;5.53;;;4.88;;
39426;SDS011;25938;48.470;1.486;2023-01-30T03:13:43;5.93;;;5.28;;
39426;SDS011;25938;48.470;1.486;2023-01-30T03:16:32;5.93;;;4.75;;
39426;SDS011;25938;48.470;1.486;2023-01-30T03:18:59;5.97;;;4.80;;
39426;SDS011;25938;48.470;1.486;2023-01-30T03:21:26;6.05;;;4.10;;
39426;SDS011;25938;48.470;1.486;2023-01-30T03:23:52;7.10;;;3.88;;
39426;SDS011;25938;48.470;1.486;2023-01-30T03:26:22;7.40;;;4.88;;
39426;SDS011;25938;48.470;1.486;2023-01-30T03:28:49;5.45;;;4.57;;
39426;SDS011;25938;48.470;1.486;2023-01-30T03:31:16;7.50;;;5.15;;
39426;SDS011;25938;48.470;1.486;2023-01-30T03:33:42;5.95;;;5.07;;
39426;SDS011;25938;48.470;1.486;2023-01-30T03:36:08;5.88;;;4.85;;
39426;SDS011;25938;48.470;1.486;2023-01-30T03:38:35;6.63;;;4.40;;
39426;SDS011;25938;48.470;1.486;2023-01-30T03:41:01;8.50;;;4.93;;
39426;SDS011;25938;48.470;1.486;2023-01-30T03:43:28;4.95;;;4.18;;
39426;SDS011;25938;48.470;1.486;2023-01-30T03:45:54;6.80;;;4.55;;
39426;SDS011;25938;48.470;1.486;2023-01-30T03:48:20;7.75;;;4.68;;
39426;SDS011;25938;48.470;1.486;2023-01-30T03:50:46;8.55;;;4.80;;
39426;SDS011;25938;48.470;1.486;2023-01-30T03:53:12;4.68;;;3.95;;
39426;SDS011;25938;48.470;1.486;2023-01-30T03:55:38;5.70;;;4.30;;
39426;SDS011;25938;48.470;1.486;2023-01-30T03:58:04;5.82;;;4.28;;
39426;SDS011;25938;48.470;1.486;2023-01-30T04:00:31;6.10;;;4.07;;
39426;SDS011;25938;48.470;1.486;2023-01-30T04:02:57;7.50;;;4.47;;
39426;SDS011;25938;48.470;1.486;2023-01-30T04:05:24;6.72;;;4.82;;
39426;SDS011;25938;48.470;1.486;2023-01-30T04:07:50;5.28;;;4.13;;
39426;SDS011;25938;48.470;1.486;2023-01-30T04:10:16;4.28;;;3.88;;
39426;SDS011;25938;48.470;1.486;2023-01-30T04:12:44;9.02;;;5.03;;
39426;SDS011;25938;48.470;1.486;2023-01-30T04:15:10;6.30;;;3.80;;
39426;SDS011;25938;48.470;1.486;2023-01-30T04:17:36;7.00;;;4.35;;
39426;SDS011;25938;48.470;1.486;2023-01-30T04:20:02;5.18;;;3.80;;
39426;SDS011;25938;48.470;1.486;2023-01-30T04:22:28;4.32;;;3.88;;
39426;SDS011;25938;48.470;1.486;2023-01-30T04:24:54;5.07;;;3.85;;
39426;SDS011;25938;48.470;1.486;2023-01-30T04:27:20;5.63;;;4.30;;
39426;SDS011;25938;48.470;1.486;2023-01-30T04:29:47;5.75;;;4.13;;
39426;SDS011;25938;48.470;1.486;2023-01-30T04:32:13;5.70;;;4.10;;
39426;SDS011;25938;48.470;1.486;2023-01-30T04:34:39;6.75;;;4.53;;
39426;SDS011;25938;48.470;1.486;2023-01-30T04:37:06;6.03;;;4.63;;
39426;SDS011;25938;48.470;1.486;2023-01-30T04:39:32;6.68;;;4.45;;
39426;SDS011;25938;48.470;1.486;2023-01-30T04:41:58;4.90;;;4.45;;
39426;SDS011;25938;48.470;1.486;2023-01-30T04:44:24;4.22;;;3.75;;
39426;SDS011;25938;48.470;1.486;2023-01-30T04:46:50;5.45;;;4.05;;
39426;SDS011;25938;48.470;1.486;2023-01-30T04:49:16;4.88;;;4.22;;
39426;SDS011;25938;48.470;1.486;2023-01-30T04:51:42;6.00;;;4.15;;
39426;SDS011;25938;48.470;1.486;2023-01-30T04:54:08;6.63;;;4.07;;
39426;SDS011;25938;48.470;1.486;2023-01-30T04:56:34;7.45;;;4.40;;
39426;SDS011;25938;48.470;1.486;2023-01-30T04:59:00;3.97;;;3.58;;
39426;SDS011;25938;48.470;1.486;2023-01-30T05:01:36;6.28;;;4.00;;
39426;SDS011;25938;48.470;1.486;2023-01-30T05:04:03;4.65;;;4.13;;
39426;SDS011;25938;48.470;1.486;2023-01-30T05:06:30;6.57;;;3.97;;
39426;SDS011;25938;48.470;1.486;2023-01-30T05:08:56;5.05;;;4.05;;
39426;SDS011;25938;48.470;1.486;2023-01-30T05:11:23;6.13;;;4.50;;
39426;SDS011;25938;48.470;1.486;2023-01-30T05:13:49;5.80;;;4.20;;
39426;SDS011;25938;48.470;1.486;2023-01-30T05:16:16;5.07;;;4.13;;
39426;SDS011;25938;48.470;1.486;2023-01-30T05:18:43;6.97;;;4.22;;
39426;SDS011;25938;48.470;1.486;2023-01-30T05:21:13;6.07;;;4.80;;
39426;SDS011;25938;48.470;1.486;2023-01-30T05:23:40;5.13;;;4.32;;
39426;SDS011;25938;48.470;1.486;2023-01-30T05:26:06;5.22;;;4.30;;
39426;SDS011;25938;48.470;1.486;2023-01-30T05:28:32;6.55;;;4.65;;
39426;SDS011;25938;48.470;1.486;2023-01-30T05:33:28;6.50;;;4.10;;
39426;SDS011;25938;48.470;1.486;2023-01-30T05:35:54;6.32;;;3.67;;
39426;SDS011;25938;48.470;1.486;2023-01-30T05:38:21;7.63;;;4.40;;
39426;SDS011;25938;48.470;1.486;2023-01-30T05:40:56;7.95;;;4.30;;
39426;SDS011;25938;48.470;1.486;2023-01-30T05:43:22;4.93;;;4.30;;
39426;SDS011;25938;48.470;1.486;2023-01-30T05:45:51;7.50;;;3.70;;
39426;SDS011;25938;48.470;1.486;2023-01-30T05:48:17;4.80;;;4.10;;
39426;SDS011;25938;48.470;1.486;2023-01-30T05:50:43;6.60;;;4.75;;
39426;SDS011;25938;48.470;1.486;2023-01-30T05:53:09;5.00;;;4.40;;
39426;SDS011;25938;48.470;1.486;2023-01-30T05:55:36;5.47;;;4.68;;
39426;SDS011;25938;48.470;1.486;2023-01-30T05:58:02;6.20;;;4.10;;
39426;SDS011;25938;48.470;1.486;2023-01-30T06:00:28;7.90;;;4.28;;
39426;SDS011;25938;48.470;1.486;2023-01-30T06:02:54;4.78;;;3.85;;
39426;SDS011;25938;48.470;1.486;2023-01-30T06:05:20;4.63;;;4.10;;
39426;SDS011;25938;48.470;1.486;2023-01-30T06:07:46;6.30;;;4.00;;
39426;SDS011;25938;48.470;1.486;2023-01-30T06:10:12;5.60;;;4.18;;
39426;SDS011;25938;48.470;1.486;2023-01-30T06:12:38;5.93;;;4.28;;
39426;SDS011;25938;48.470;1.486;2023-01-30T06:15:04;3.58;;;3.25;;
39426;SDS011;25938;48.470;1.486;2023-01-30T06:17:30;5.30;;;3.85;;
39426;SDS011;25938;48.470;1.486;2023-01-30T06:19:56;4.85;;;3.78;;
39426;SDS011;25938;48.470;1.486;2023-01-30T06:22:22;6.05;;;5.20;;
39426;SDS011;25938;48.470;1.486;2023-01-30T06:24:48;3.85;;;3.55;;
39426;SDS011;25938;48.470;1.486;2023-01-30T06:27:14;5.50;;;4.28;;
39426;SDS011;25938;48.470;1.486;2023-01-30T06:29:40;3.97;;;3.58;;
39426;SDS011;25938;48.470;1.486;2023-01-30T06:32:06;5.45;;;3.95;;
39426;SDS011;25938;48.470;1.486;2023-01-30T06:34:33;6.07;;;3.95;;
39426;SDS011;25938;48.470;1.486;2023-01-30T06:36:59;4.82;;;4.30;;
39426;SDS011;25938;48.470;1.486;2023-01-30T06:39:25;4.97;;;3.75;;
39426;SDS011;25938;48.470;1.486;2023-01-30T06:41:51;6.85;;;4.95;;
39426;SDS011;25938;48.470;1.486;2023-01-30T06:44:17;4.75;;;4.25;;
39426;SDS011;25938;48.470;1.486;2023-01-30T06:46:43;4.20;;;3.22;;
39426;SDS011;25938;48.470;1.486;2023-01-30T06:49:10;5.13;;;4.20;;
39426;SDS011;25938;48.470;1.486;2023-01-30T06:51:36;5.57;;;3.55;;
39426;SDS011;25938;48.470;1.486;2023-01-30T06:54:02;4.78;;;3.97;;
39426;SDS011;25938;48.470;1.486;2023-01-30T06:56:28;5.55;;;3.85;;
39426;SDS011;25938;48.470;1.486;2023-01-30T06:58:54;5.57;;;3.65;;
39426;SDS011;25938;48.470;1.486;2023-01-30T07:01:20;4.75;;;3.33;;
39426;SDS011;25938;48.470;1.486;2023-01-30T07:03:46;4.53;;;3.55;;
39426;SDS011;25938;48.470;1.486;2023-01-30T07:06:12;4.68;;;3.60;;
39426;SDS011;25938;48.470;1.486;2023-01-30T07:08:38;5.18;;;3.75;;
39426;SDS011;25938;48.470;1.486;2023-01-30T07:11:05;6.32;;;3.83;;
39426;SDS011;25938;48.470;1.486;2023-01-30T07:13:31;3.92;;;3.28;;
39426;SDS011;25938;48.470;1.486;2023-01-30T07:15:57;5.07;;;3.45;;
39426;SDS011;25938;48.470;1.486;2023-01-30T07:18:23;6.43;;;3.78;;
39426;SDS011;25938;48.470;1.486;2023-01-30T07:20:49;3.22;;;2.92;;
39426;SDS011;25938;48.470;1.486;2023-01-30T07:23:15;4.00;;;3.60;;
39426;SDS011;25938;48.470;1.486;2023-01-30T07:25:42;3.10;;;2.67;;
39426;SDS011;25938;48.470;1.486;2023-01-30T07:28:08;3.75;;;3.22;;
39426;SDS011;25938;48.470;1.486;2023-01-30T07:30:34;4.03;;;3.58;;
39426;SDS011;25938;48.470;1.486;2023-01-30T07:33:01;3.70;;;3.35;;
39426;SDS011;25938;48.470;1.486;2023-01-30T07:35:28;3.22;;;2.92;;
39426;SDS011;25938;48.470;1.486;2023-01-30T07:37:54;3.75;;;3.20;;
39426;SDS011;25938;48.470;1.486;2023-01-30T07:40:21;4.20;;;2.90;;
39426;SDS011;25938;48.470;1.486;2023-01-30T07:45:22;3.67;;;3.08;;
39426;SDS011;25938;48.470;1.486;2023-01-30T07:47:49;3.05;;;2.85;;
39426;SDS011;25938;48.470;1.486;2023-01-30T07:50:15;2.90;;;2.47;;
39426;SDS011;25938;48.470;1.486;2023-01-30T07:52:41;4.15;;;2.88;;
39426;SDS011;25938;48.470;1.486;2023-01-30T07:55:07;4.78;;;3.78;;
39426;SDS011;25938;48.470;1.486;2023-01-30T07:57:33;4.15;;;2.65;;
39426;SDS011;25938;48.470;1.486;2023-01-30T07:59:59;2.97;;;2.67;;
39426;SDS011;25938;48.470;1.486;2023-01-30T08:02:25;3.53;;;3.05;;
39426;SDS011;25938;48.470;1.486;2023-01-30T08:04:51;3.35;;;2.80;;
39426;SDS011;25938;48.470;1.486;2023-01-30T08:07:17;3.55;;;2.85;;
39426;SDS011;25938;48.470;1.486;2023-01-30T08:09:44;3.65;;;2.30;;
39426;SDS011;25938;48.470;1.486;2023-01-30T08:12:10;4.43;;;3.33;;
39426;SDS011;25938;48.470;1.486;2023-01-30T08:14:36;3.95;;;3.08;;
39426;SDS011;25938;48.470;1.486;2023-01-30T08:17:02;3.92;;;2.55;;
39426;SDS011;25938;48.470;1.486;2023-01-30T08:19:28;3.42;;;3.13;;
39426;SDS011;25938;48.470;1.486;2023-01-30T08:21:54;2.67;;;2.47;;
39426;SDS011;25938;48.470;1.486;2023-01-30T08:24:20;4.05;;;3.00;;
39426;SDS011;25938;48.470;1.486;2023-01-30T08:26:49;3.55;;;2.75;;
39426;SDS011;25938;48.470;1.486;2023-01-30T08:29:15;4.00;;;2.55;;
39426;SDS011;25938;48.470;1.486;2023-01-30T08:31:41;2.92;;;2.58;;
39426;SDS011;25938;48.470;1.486;2023-01-30T08:34:08;3.63;;;2.88;;
39426;SDS011;25938;48.470;1.486;2023-01-30T08:36:34;3.63;;;2.72;;
39426;SDS011;25938;48.470;1.486;2023-01-30T08:39:00;3.15;;;2.67;;
39426;SDS011;25938;48.470;1.486;2023-01-30T08:41:26;3.95;;;2.47;;
39426;SDS011;25938;48.470;1.486;2023-01-30T08:43:52;3.45;;;2.85;;
39426;SDS011;25938;48.470;1.486;2023-01-30T08:46:18;2.38;;;2.17;;
39426;SDS011;25938;48.470;1.486;2023-01-30T08:48:46;3.05;;;2.72;;
39426;SDS011;25938;48.470;1.486;2023-01-30T08:51:12;3.08;;;2.50;;
39426;SDS011;25938;48.470;1.486;2023-01-30T08:53:38;3.10;;;2.40;;
39426;SDS011;25938;48.470;1.486;2023-01-30T08:56:04;3.45;;;2.45;;
39426;SDS011;25938;48.470;1.486;2023-01-30T08:58:30;2.35;;;2.00;;
39426;SDS011;25938;48.470;1.486;2023-01-30T09:00:56;1.83;;;1.50;;
39426;SDS011;25938;48.470;1.486;2023-01-30T09:03:22;2.42;;;2.20;;
39426;SDS011;25938;48.470;1.486;2023-01-30T09:05:54;2.80;;;2.05;;
39426;SDS011;25938;48.470;1.486;2023-01-30T09:08:20;2.97;;;2.10;;
39426;SDS011;25938;48.470;1.486;2023-01-30T09:10:47;2.67;;;1.92;;
39426;SDS011;25938;48.470;1.486;2023-01-30T09:13:13;3.00;;;2.40;;
39426;SDS011;25938;48.470;1.486;2023-01-30T09:15:42;2.20;;;2.00;;
39426;SDS011;25938;48.470;1.486;2023-01-30T09:18:09;2.65;;;2.45;;
39426;SDS011;25938;48.470;1.486;2023-01-30T09:20:35;2.88;;;1.90;;
39426;SDS011;25938;48.470;1.486;2023-01-30T09:23:02;2.63;;;1.95;;
39426;SDS011;25938;48.470;1.486;2023-01-30T09:25:28;2.03;;;1.85;;
39426;SDS011;25938;48.470;1.486;2023-01-30T09:27:54;2.05;;;1.88;;
39426;SDS011;25938;48.470;1.486;2023-01-30T09:30:20;1.50;;;1.35;;
39426;SDS011;25938;48.470;1.486;2023-01-30T09:32:47;2.10;;;1.95;;
39426;SDS011;25938;48.470;1.486;2023-01-30T09:35:13;2.30;;;2.10;;
39426;SDS011;25938;48.470;1.486;2023-01-30T09:37:45;1.73;;;1.48;;
39426;SDS011;25938;48.470;1.486;2023-01-30T09:40:13;2.08;;;1.88;;
39426;SDS011;25938;48.470;1.486;2023-01-30T09:42:46;1.60;;;1.35;;
39426;SDS011;25938;48.470;1.486;2023-01-30T09:45:36;2.28;;;1.38;;
39426;SDS011;25938;48.470;1.486;2023-01-30T09:56:06;1.50;;;1.38;;
39426;SDS011;25938;48.470;1.486;2023-01-30T09:58:46;1.92;;;1.50;;
39426;SDS011;25938;48.470;1.486;2023-01-30T10:01:22;1.80;;;1.60;;
39426;SDS011;25938;48.470;1.486;2023-01-30T10:03:55;1.20;;;1.00;;
39426;SDS011;25938;48.470;1.486;2023-01-30T10:06:24;1.85;;;1.52;;
39426;SDS011;25938;48.470;1.486;2023-01-30T10:16:56;2.30;;;1.40;;
39426;SDS011;25938;48.470;1.486;2023-01-30T10:27:19;0.95;;;0.90;;
39426;SDS011;25938;48.470;1.486;2023-01-30T10:29:47;1.90;;;1.70;;
39426;SDS011;25938;48.470;1.486;2023-01-30T10:32:15;1.73;;;1.60;;
39426;SDS011;25938;48.470;1.486;2023-01-30T10:34:48;1.27;;;1.17;;
39426;SDS011;25938;48.470;1.486;2023-01-30T10:37:21;1.05;;;0.98;;
39426;SDS011;25938;48.470;1.486;2023-01-30T10:42:24;1.42;;;0.82;;
39426;SDS011;25938;48.470;1.486;2023-01-30T10:44:51;2.00;;;1.38;;
39426;SDS011;25938;48.470;1.486;2023-01-30T10:47:40;2.50;;;1.20;;
39426;SDS011;25938;48.470;1.486;2023-01-30T10:50:13;3.28;;;2.20;;
39426;SDS011;25938;48.470;1.486;2023-01-30T10:52:42;2.17;;;1.85;;
39426;SDS011;25938;48.470;1.486;2023-01-30T10:55:12;2.47;;;1.88;;
39426;SDS011;25938;48.470;1.486;2023-01-30T10:57:46;2.17;;;1.38;;
39426;SDS011;25938;48.470;1.486;2023-01-30T11:00:28;1.40;;;1.30;;
39426;SDS011;25938;48.470;1.486;2023-01-30T11:05:24;1.23;;;1.13;;
39426;SDS011;25938;48.470;1.486;2023-01-30T11:07:52;2.25;;;1.13;;
39426;SDS011;25938;48.470;1.486;2023-01-30T11:10:19;2.58;;;1.38;;
39426;SDS011;25938;48.470;1.486;2023-01-30T11:12:45;1.35;;;1.23;;
39426;SDS011;25938;48.470;1.486;2023-01-30T11:15:12;2.38;;;1.52;;
39426;SDS011;25938;48.470;1.486;2023-01-30T11:17:38;1.83;;;1.35;;
39426;SDS011;25938;48.470;1.486;2023-01-30T11:20:13;2.30;;;1.55;;
39426;SDS011;25938;48.470;1.486;2023-01-30T11:25:13;1.27;;;1.00;;
39426;SDS011;25938;48.470;1.486;2023-01-30T11:27:40;1.10;;;0.88;;
39426;SDS011;25938;48.470;1.486;2023-01-30T11:30:15;1.23;;;0.85;;
39426;SDS011;25938;48.470;1.486;2023-01-30T11:32:42;1.40;;;1.02;;
39426;SDS011;25938;48.470;1.486;2023-01-30T11:37:35;1.38;;;1.27;;
39426;SDS011;25938;48.470;1.486;2023-01-30T11:42:40;1.45;;;1.33;;
39426;SDS011;25938;48.470;1.486;2023-01-30T11:45:09;1.90;;;1.35;;
39426;SDS011;25938;48.470;1.486;2023-01-30T11:47:36;1.40;;;1.30;;
39426;SDS011;25938;48.470;1.486;2023-01-30T11:50:02;1.23;;;1.00;;
39426;SDS011;25938;48.470;1.486;2023-01-30T11:52:29;1.25;;;0.93;;
39426;SDS011;25938;48.470;1.486;2023-01-30T11:55:00;1.95;;;1.02;;
39426;SDS011;25938;48.470;1.486;2023-01-30T11:57:30;1.88;;;1.23;;
39426;SDS011;25938;48.470;1.486;2023-01-30T12:00:03;1.15;;;1.05;;
39426;SDS011;25938;48.470;1.486;2023-01-30T12:04:59;1.55;;;1.15;;
39426;SDS011;25938;48.470;1.486;2023-01-30T12:07:31;2.05;;;1.30;;
39426;SDS011;25938;48.470;1.486;2023-01-30T12:09:58;1.45;;;1.35;;
39426;SDS011;25938;48.470;1.486;2023-01-30T12:12:28;2.08;;;1.35;;
39426;SDS011;25938;48.470;1.486;2023-01-30T12:15:09;1.13;;;1.02;;
39426;SDS011;25938;48.470;1.486;2023-01-30T12:17:43;0.70;;;0.57;;
39426;SDS011;25938;48.470;1.486;2023-01-30T12:20:16;1.33;;;0.88;;
39426;SDS011;25938;48.470;1.486;2023-01-30T12:26:04;1.20;;;1.08;;
39426;SDS011;25938;48.470;1.486;2023-01-30T12:28:28;1.00;;;1.00;;
39426;SDS011;25938;48.470;1.486;2023-01-30T12:31:01;1.42;;;1.08;;
39426;SDS011;25938;48.470;1.486;2023-01-30T12:33:29;2.45;;;1.20;;
39426;SDS011;25938;48.470;1.486;2023-01-30T12:43:48;1.48;;;1.00;;
39426;SDS011;25938;48.470;1.486;2023-01-30T13:04:13;2.50;;;1.40;;
39426;SDS011;25938;48.470;1.486;2023-01-30T13:11:54;1.75;;;1.27;;
39426;SDS011;25938;48.470;1.486;2023-01-30T13:19:35;1.35;;;1.13;;
39426;SDS011;25938;48.470;1.486;2023-01-30T13:22:18;1.48;;;1.02;;
39426;SDS011;25938;48.470;1.486;2023-01-30T13:27:19;2.05;;;0.88;;
39426;SDS011;25938;48.470;1.486;2023-01-30T13:29:46;1.70;;;1.13;;
39426;SDS011;25938;48.470;1.486;2023-01-30T13:34:54;1.92;;;1.65;;
39426;SDS011;25938;48.470;1.486;2023-01-30T13:37:21;1.60;;;1.42;;
39426;SDS011;25938;48.470;1.486;2023-01-30T13:39:49;1.23;;;1.02;;
39426;SDS011;25938;48.470;1.486;2023-01-30T13:42:23;1.92;;;1.30;;
39426;SDS011;25938;48.470;1.486;2023-01-30T13:44:51;1.27;;;0.90;;
39426;SDS011;25938;48.470;1.486;2023-01-30T13:50:02;1.58;;;1.48;;
39426;SDS011;25938;48.470;1.486;2023-01-30T13:52:40;1.35;;;1.25;;
39426;SDS011;25938;48.470;1.486;2023-01-30T13:55:24;1.65;;;1.20;;
39426;SDS011;25938;48.470;1.486;2023-01-30T13:57:57;1.55;;;1.30;;
39426;SDS011;25938;48.470;1.486;2023-01-30T14:00:27;1.60;;;1.50;;
39426;SDS011;25938;48.470;1.486;2023-01-30T14:08:24;1.13;;;1.02;;
39426;SDS011;25938;48.470;1.486;2023-01-30T14:10:51;1.45;;;1.35;;
39426;SDS011;25938;48.470;1.486;2023-01-30T14:13:19;1.75;;;1.65;;
39426;SDS011;25938;48.470;1.486;2023-01-30T14:15:54;1.35;;;1.25;;
39426;SDS011;25938;48.470;1.486;2023-01-30T14:18:21;1.42;;;0.93;;
39426;SDS011;25938;48.470;1.486;2023-01-30T14:20:48;1.40;;;1.30;;
39426;SDS011;25938;48.470;1.486;2023-01-30T14:23:23;1.73;;;1.58;;
39426;SDS011;25938;48.470;1.486;2023-01-30T14:25:53;2.00;;;1.10;;
39426;SDS011;25938;48.470;1.486;2023-01-30T14:38:26;1.38;;;1.10;;
39426;SDS011;25938;48.470;1.486;2023-01-30T14:48:44;1.80;;;1.20;;
39426;SDS011;25938;48.470;1.486;2023-01-30T14:56:19;1.40;;;1.08;;
39426;SDS011;25938;48.470;1.486;2023-01-30T14:58:54;1.10;;;1.00;;
39426;SDS011;25938;48.470;1.486;2023-01-30T15:01:22;1.38;;;1.27;;
39426;SDS011;25938;48.470;1.486;2023-01-30T15:03:48;1.25;;;0.93;;
39426;SDS011;25938;48.470;1.486;2023-01-30T15:06:15;1.40;;;1.30;;
39426;SDS011;25938;48.470;1.486;2023-01-30T15:08:43;1.88;;;1.30;;
39426;SDS011;25938;48.470;1.486;2023-01-30T15:31:21;1.77;;;1.42;;
39426;SDS011;25938;48.470;1.486;2023-01-30T15:33:48;1.20;;;1.20;;
39426;SDS011;25938;48.470;1.486;2023-01-30T15:36:31;1.55;;;1.45;;
39426;SDS011;25938;48.470;1.486;2023-01-30T15:41:43;1.80;;;1.10;;
39426;SDS011;25938;48.470;1.486;2023-01-30T15:52:02;1.95;;;1.67;;
39426;SDS011;25938;48.470;1.486;2023-01-30T15:54:28;2.17;;;1.98;;
39426;SDS011;25938;48.470;1.486;2023-01-30T15:56:54;1.42;;;1.05;;
39426;SDS011;25938;48.470;1.486;2023-01-30T16:02:02;1.98;;;1.70;;
39426;SDS011;25938;48.470;1.486;2023-01-30T16:04:30;2.67;;;1.83;;
39426;SDS011;25938;48.470;1.486;2023-01-30T16:06:56;1.70;;;1.55;;
39426;SDS011;25938;48.470;1.486;2023-01-30T16:09:23;2.00;;;1.70;;
39426;SDS011;25938;48.470;1.486;2023-01-30T16:11:49;1.63;;;1.50;;
39426;SDS011;25938;48.470;1.486;2023-01-30T16:14:16;2.30;;;1.98;;
39426;SDS011;25938;48.470;1.486;2023-01-30T16:16:45;1.85;;;1.73;;
39426;SDS011;25938;48.470;1.486;2023-01-30T16:19:24;2.80;;;2.10;;
39426;SDS011;25938;48.470;1.486;2023-01-30T16:21:53;2.70;;;1.73;;
39426;SDS011;25938;48.470;1.486;2023-01-30T16:24:21;1.98;;;1.85;;
39426;SDS011;25938;48.470;1.486;2023-01-30T16:26:50;3.22;;;1.85;;
39426;SDS011;25938;48.470;1.486;2023-01-30T16:29:19;3.92;;;2.20;;
39426;SDS011;25938;48.470;1.486;2023-01-30T16:31:47;2.35;;;1.80;;
39426;SDS011;25938;48.470;1.486;2023-01-30T16:34:46;2.83;;;1.80;;
39426;SDS011;25938;48.470;1.486;2023-01-30T16:39:41;2.45;;;1.95;;
39426;SDS011;25938;48.470;1.486;2023-01-30T16:42:23;2.97;;;2.10;;
39426;SDS011;25938;48.470;1.486;2023-01-30T16:44:50;3.85;;;1.85;;
39426;SDS011;25938;48.470;1.486;2023-01-30T16:47:23;2.72;;;1.95;;
39426;SDS011;25938;48.470;1.486;2023-01-30T16:49:50;3.28;;;2.38;;
39426;SDS011;25938;48.470;1.486;2023-01-30T16:52:21;4.40;;;2.60;;
39426;SDS011;25938;48.470;1.486;2023-01-30T16:54:51;3.25;;;2.22;;
39426;SDS011;25938;48.470;1.486;2023-01-30T16:57:22;4.05;;;2.50;;
39426;SDS011;25938;48.470;1.486;2023-01-30T16:59:51;3.88;;;2.17;;
39426;SDS011;25938;48.470;1.486;2023-01-30T17:02:25;2.25;;;1.98;;
39426;SDS011;25938;48.470;1.486;2023-01-30T17:04:53;2.63;;;2.40;;
39426;SDS011;25938;48.470;1.486;2023-01-30T17:07:32;3.17;;;2.65;;
39426;SDS011;25938;48.470;1.486;2023-01-30T17:09:59;3.35;;;2.60;;
39426;SDS011;25938;48.470;1.486;2023-01-30T17:15:37;2.50;;;2.30;;
39426;SDS011;25938;48.470;1.486;2023-01-30T17:17:44;3.90;;;2.58;;
39426;SDS011;25938;48.470;1.486;2023-01-30T17:20:10;3.63;;;2.42;;
39426;SDS011;25938;48.470;1.486;2023-01-30T17:22:37;3.30;;;2.60;;
39426;SDS011;25938;48.470;1.486;2023-01-30T17:25:13;3.30;;;2.38;;
39426;SDS011;25938;48.470;1.486;2023-01-30T17:27:41;3.80;;;2.42;;
39426;SDS011;25938;48.470;1.486;2023-01-30T17:30:14;3.15;;;2.50;;
39426;SDS011;25938;48.470;1.486;2023-01-30T17:32:41;4.07;;;2.67;;
39426;SDS011;25938;48.470;1.486;2023-01-30T17:35:07;4.05;;;2.72;;
39426;SDS011;25938;48.470;1.486;2023-01-30T17:37:33;3.72;;;3.17;;
39426;SDS011;25938;48.470;1.486;2023-01-30T17:39:59;2.78;;;2.38;;
39426;SDS011;25938;48.470;1.486;2023-01-30T17:42:25;3.72;;;2.75;;
39426;SDS011;25938;48.470;1.486;2023-01-30T17:44:51;2.90;;;2.53;;
39426;SDS011;25938;48.470;1.486;2023-01-30T17:47:18;4.10;;;3.70;;
39426;SDS011;25938;48.470;1.486;2023-01-30T17:49:45;3.80;;;2.80;;
39426;SDS011;25938;48.470;1.486;2023-01-30T17:52:12;4.10;;;2.75;;
39426;SDS011;25938;48.470;1.486;2023-01-30T17:54:38;4.75;;;3.22;;
39426;SDS011;25938;48.470;1.486;2023-01-30T17:57:05;4.90;;;3.53;;
39426;SDS011;25938;48.470;1.486;2023-01-30T17:59:35;6.53;;;4.75;;
39426;SDS011;25938;48.470;1.486;2023-01-30T18:02:01;4.97;;;3.42;;
39426;SDS011;25938;48.470;1.486;2023-01-30T18:04:27;4.40;;;2.67;;
39426;SDS011;25938;48.470;1.486;2023-01-30T18:06:54;7.13;;;4.40;;